createdAt,value
2022-08-25T00:02:02.970Z,56.03
2022-08-25T00:04:29.866Z,55.98
2022-08-25T00:07:00.695Z,55.87
2022-08-25T00:09:29.041Z,55.93
2022-08-25T00:11:55.681Z,55.87
2022-08-25T00:14:24.532Z,55.90
2022-08-25T00:16:51.139Z,55.85
2022-08-25T00:19:20.142Z,55.81
2022-08-25T00:21:46.902Z,55.88
2022-08-25T00:24:14.613Z,55.84
2022-08-25T00:26:42.460Z,55.88
2022-08-25T00:29:09.628Z,55.85
2022-08-25T00:31:37.928Z,55.78
2022-08-25T00:34:13.004Z,55.78
2022-08-25T00:36:39.632Z,55.75
2022-08-25T00:39:07.264Z,55.79
2022-08-25T00:41:35.258Z,55.77
2022-08-25T00:44:04.496Z,55.75
2022-08-25T00:46:36.741Z,55.73
2022-08-25T00:49:08.724Z,55.74
2022-08-25T00:51:46.975Z,55.77
2022-08-25T00:54:16.879Z,55.75
2022-08-25T00:56:43.587Z,55.73
2022-08-25T00:59:10.137Z,55.70
2022-08-25T01:01:37.032Z,55.83
2022-08-25T01:04:03.895Z,55.79
2022-08-25T01:06:30.535Z,55.71
2022-08-25T01:08:57.435Z,55.74
2022-08-25T01:11:24.012Z,55.71
2022-08-25T01:13:54.891Z,55.69
2022-08-25T01:16:21.502Z,55.73
2022-08-25T01:18:56.488Z,55.77
2022-08-25T01:21:23.931Z,55.80
2022-08-25T01:23:50.712Z,55.69
2022-08-25T01:26:19.925Z,55.68
2022-08-25T01:29:15.158Z,55.82
2022-08-25T01:31:41.945Z,55.73
2022-08-25T01:34:08.851Z,55.75
2022-08-25T01:36:35.653Z,55.76
2022-08-25T01:39:03.188Z,55.73
2022-08-25T01:41:29.718Z,55.83
2022-08-25T01:43:56.306Z,55.80
2022-08-25T01:46:22.992Z,55.74
2022-08-25T01:48:49.625Z,56.03
2022-08-25T01:51:16.415Z,55.71
2022-08-25T01:53:44.207Z,55.81
2022-08-25T01:56:11.785Z,55.84
2022-08-25T01:58:40.712Z,55.99
2022-08-25T02:01:09.611Z,55.69
2022-08-25T02:03:38.655Z,55.91
2022-08-25T02:06:08.938Z,55.76
2022-08-25T02:08:36.411Z,56.05
2022-08-25T02:11:03.351Z,55.77
2022-08-25T02:13:31.565Z,55.97
2022-08-25T02:16:00.216Z,55.71
2022-08-25T02:18:26.826Z,55.91
2022-08-25T02:20:54.247Z,55.70
2022-08-25T02:23:21.093Z,55.90
2022-08-25T02:25:47.680Z,55.67
2022-08-25T02:28:14.231Z,55.74
2022-08-25T02:30:42.539Z,55.71
2022-08-25T02:33:12.307Z,55.71
2022-08-25T02:35:38.920Z,55.71
2022-08-25T02:38:05.719Z,55.56
2022-08-25T02:40:32.412Z,55.82
2022-08-25T02:42:59.059Z,56.11
2022-08-25T02:45:25.645Z,56.11
2022-08-25T02:47:52.759Z,55.77
2022-08-25T02:50:19.470Z,55.59
2022-08-25T02:52:46.334Z,56.01
2022-08-25T02:55:14.304Z,55.74
2022-08-25T02:57:42.110Z,55.99
2022-08-25T03:00:10.906Z,55.91
2022-08-25T03:02:41.390Z,56.02
2022-08-25T03:05:09.389Z,55.85
2022-08-25T03:07:36.353Z,55.76
2022-08-25T03:10:08.097Z,55.96
2022-08-25T03:12:35.310Z,55.70
2022-08-25T03:15:02.047Z,55.47
2022-08-25T03:17:29.530Z,56.04
2022-08-25T03:19:56.831Z,55.98
2022-08-25T03:22:23.456Z,55.64
2022-08-25T03:24:50.036Z,55.89
2022-08-25T03:27:16.738Z,55.70
2022-08-25T03:29:43.349Z,55.66
2022-08-25T03:32:10.141Z,55.91
2022-08-25T03:34:36.786Z,55.99
2022-08-25T03:37:03.591Z,55.85
2022-08-25T03:39:30.197Z,55.84
2022-08-25T03:41:56.944Z,55.95
2022-08-25T03:44:23.579Z,55.90
2022-08-25T03:46:51.630Z,55.74
2022-08-25T03:49:22.986Z,55.80
2022-08-25T03:51:50.758Z,55.82
2022-08-25T03:54:20.105Z,55.72
2022-08-25T03:56:47.366Z,55.90
2022-08-25T03:59:14.000Z,55.62
2022-08-25T04:01:42.068Z,55.78
2022-08-25T04:04:09.203Z,55.78
2022-08-25T04:06:35.794Z,55.63
2022-08-25T04:09:02.450Z,55.84
2022-08-25T04:11:29.072Z,55.89
2022-08-25T04:14:01.043Z,55.90
2022-08-25T04:16:31.204Z,55.81
2022-08-25T04:18:59.506Z,55.89
2022-08-25T04:21:26.207Z,55.89
2022-08-25T04:23:53.147Z,55.86
2022-08-25T04:26:20.794Z,55.86
2022-08-25T04:28:47.416Z,55.89
2022-08-25T04:31:17.306Z,55.89
2022-08-25T04:33:44.027Z,55.91
2022-08-25T04:36:13.631Z,55.95
2022-08-25T04:38:40.844Z,55.88
2022-08-25T04:41:08.025Z,55.97
2022-08-25T04:43:34.819Z,55.90
2022-08-25T04:46:08.308Z,55.92
2022-08-25T04:48:35.250Z,55.82
2022-08-25T04:51:06.138Z,55.88
2022-08-25T04:53:33.644Z,55.90
2022-08-25T04:56:03.652Z,55.89
2022-08-25T04:58:30.639Z,55.83
2022-08-25T05:01:15.780Z,55.83
2022-08-25T05:03:42.910Z,55.94
2022-08-25T05:06:13.997Z,55.91
2022-08-25T05:08:42.401Z,55.80
2022-08-25T05:11:14.374Z,55.70
2022-08-25T05:13:41.310Z,55.63
2022-08-25T05:16:09.944Z,55.58
2022-08-25T05:18:41.390Z,55.32
2022-08-25T05:21:10.564Z,55.21
2022-08-25T05:23:37.256Z,55.30
2022-08-25T05:26:09.207Z,55.25
2022-08-25T05:28:35.854Z,56.24
2022-08-25T05:31:02.931Z,56.99
2022-08-25T05:33:30.618Z,57.26
2022-08-25T05:35:59.776Z,57.74
2022-08-25T05:38:26.536Z,57.72
2022-08-25T05:41:05.016Z,58.01
2022-08-25T05:43:31.928Z,57.95
2022-08-25T05:45:58.908Z,58.28
2022-08-25T05:48:26.524Z,58.35
2022-08-25T05:51:00.565Z,58.37
2022-08-25T05:53:27.693Z,58.43
2022-08-25T05:55:58.391Z,58.63
2022-08-25T05:58:25.896Z,58.67
2022-08-25T06:00:52.521Z,58.61
2022-08-25T06:03:19.163Z,58.77
2022-08-25T06:05:45.846Z,59.10
2022-08-25T06:08:12.418Z,58.90
2022-08-25T06:10:39.045Z,59.14
2022-08-25T06:13:06.499Z,59.23
2022-08-25T06:15:33.981Z,59.18
2022-08-25T06:18:01.846Z,59.08
2022-08-25T06:20:30.982Z,59.11
2022-08-25T06:22:57.899Z,59.08
2022-08-25T06:25:25.316Z,58.95
2022-08-25T06:27:52.096Z,59.18
2022-08-25T06:30:28.430Z,59.03
2022-08-25T06:32:55.378Z,58.98
2022-08-25T06:35:22.738Z,58.98
2022-08-25T06:37:49.385Z,58.87
2022-08-25T06:40:16.514Z,58.80
2022-08-25T06:42:43.227Z,58.91
2022-08-25T06:45:10.182Z,59.03
2022-08-25T06:47:36.761Z,58.94
2022-08-25T06:50:04.503Z,58.62
2022-08-25T06:52:31.645Z,58.94
2022-08-25T06:54:58.241Z,58.88
2022-08-25T06:57:27.412Z,59.13
2022-08-25T06:59:54.866Z,58.94
2022-08-25T07:02:22.012Z,58.64
2022-08-25T07:04:49.526Z,58.30
2022-08-25T07:07:16.095Z,58.21
2022-08-25T07:09:43.062Z,58.62
2022-08-25T07:12:09.648Z,58.12
2022-08-25T07:14:36.870Z,57.93
2022-08-25T07:17:12.040Z,57.89
2022-08-25T07:19:39.201Z,57.86
2022-08-25T07:22:07.684Z,58.05
2022-08-25T07:24:35.997Z,58.34
2022-08-25T07:27:02.587Z,58.38
2022-08-25T07:29:32.611Z,58.16
2022-08-25T07:32:02.940Z,58.15
2022-08-25T07:34:51.976Z,58.14
2022-08-25T07:37:27.586Z,58.51
2022-08-25T07:40:07.484Z,58.50
2022-08-25T07:42:34.118Z,58.23
2022-08-25T07:45:00.681Z,58.22
2022-08-25T07:47:27.277Z,58.15
2022-08-25T07:49:53.851Z,58.22
2022-08-25T07:52:21.390Z,58.22
2022-08-25T07:54:47.986Z,58.35
2022-08-25T07:57:14.551Z,58.14
2022-08-25T07:59:41.843Z,58.29
2022-08-25T08:02:18.705Z,58.01
2022-08-25T08:04:49.384Z,57.98
2022-08-25T08:07:20.489Z,57.98
2022-08-25T08:09:53.111Z,58.36
2022-08-25T08:12:27.088Z,58.28
2022-08-25T08:14:54.079Z,58.11
2022-08-25T08:17:20.667Z,57.91
2022-08-25T08:19:47.589Z,58.07
2022-08-25T08:22:16.943Z,58.08
2022-08-25T08:24:54.562Z,57.78
2022-08-25T08:27:22.958Z,57.89
2022-08-25T08:29:49.636Z,57.90
2022-08-25T08:32:17.953Z,57.58
2022-08-25T08:34:46.189Z,57.60
2022-08-25T08:37:13.002Z,57.40
2022-08-25T08:39:39.715Z,57.32
2022-08-25T08:42:26.599Z,57.51
2022-08-25T08:45:20.460Z,57.42
2022-08-25T08:47:57.079Z,57.33
2022-08-25T08:50:33.019Z,57.26
2022-08-25T08:53:15.007Z,57.20
2022-08-25T08:55:52.684Z,57.04
2022-08-25T08:58:50.274Z,56.91
2022-08-25T09:01:44.307Z,57.03
2022-08-25T09:04:16.464Z,57.11
2022-08-25T09:06:45.320Z,57.01
2022-08-25T09:09:12.825Z,56.82
2022-08-25T09:11:57.584Z,56.80
2022-08-25T09:14:38.425Z,56.78
2022-08-25T09:17:21.585Z,56.70
2022-08-25T09:20:25.517Z,56.61
2022-08-25T09:23:14.800Z,56.63
2022-08-25T09:25:54.044Z,56.48
2022-08-25T09:28:51.585Z,56.71
2022-08-25T09:31:29.876Z,56.79
2022-08-25T09:33:57.715Z,56.73
2022-08-25T09:36:24.704Z,56.62
2022-08-25T09:38:51.695Z,56.60
2022-08-25T09:41:34.865Z,56.54
2022-08-25T09:44:02.215Z,56.60
2022-08-25T09:46:29.258Z,56.51
2022-08-25T09:48:57.713Z,56.34
2022-08-25T09:51:28.432Z,56.35
2022-08-25T09:54:00.689Z,56.29
2022-08-25T09:56:31.960Z,56.19
2022-08-25T09:59:34.174Z,56.14
2022-08-25T10:02:20.944Z,55.93
2022-08-25T10:04:47.611Z,56.04
2022-08-25T10:07:38.098Z,56.05
2022-08-25T10:10:08.316Z,55.88
2022-08-25T10:12:42.599Z,55.87
2022-08-25T10:15:30.131Z,55.67
2022-08-25T10:18:01.886Z,55.47
2022-08-25T10:20:33.028Z,55.00
2022-08-25T10:23:13.112Z,53.68
2022-08-25T10:25:58.994Z,51.04
2022-08-25T10:28:38.483Z,50.17
2022-08-25T10:31:20.912Z,49.65
2022-08-25T10:33:52.407Z,48.94
2022-08-25T10:36:47.173Z,48.43
2022-08-25T10:39:40.726Z,48.30
2022-08-25T10:42:47.681Z,47.61
2022-08-25T10:45:39.784Z,47.16
2022-08-25T10:48:37.957Z,46.87
2022-08-25T10:52:02.225Z,46.60
2022-08-25T10:54:57.971Z,46.70
2022-08-25T10:57:40.268Z,46.58
2022-08-25T11:00:14.082Z,46.66
2022-08-25T11:03:00.510Z,46.66
2022-08-25T11:05:47.240Z,46.53
2022-08-25T11:08:39.614Z,46.51
2022-08-25T11:11:27.496Z,46.90
2022-08-25T11:14:40.394Z,46.70
2022-08-25T11:17:29.324Z,46.88
2022-08-25T11:19:59.308Z,46.73
2022-08-25T11:23:34.000Z,47.03
2022-08-25T11:26:04.355Z,46.68
2022-08-25T11:28:49.774Z,46.59
2022-08-25T11:31:16.399Z,46.36
2022-08-25T11:33:43.181Z,46.35
2022-08-25T11:36:30.053Z,46.62
2022-08-25T11:39:10.524Z,46.48
2022-08-25T11:41:42.427Z,46.69
2022-08-25T11:44:15.930Z,46.65
2022-08-25T11:46:52.546Z,46.71
2022-08-25T11:49:37.880Z,46.81
2022-08-25T11:52:30.522Z,47.09
2022-08-25T11:55:05.525Z,47.29
2022-08-25T11:57:32.167Z,47.54
2022-08-25T12:00:16.003Z,47.89
2022-08-25T12:02:45.953Z,47.68
2022-08-25T12:05:35.403Z,47.72
2022-08-25T12:08:24.514Z,47.79
2022-08-25T12:11:10.580Z,48.10
2022-08-25T12:13:51.001Z,47.90
2022-08-25T12:16:35.847Z,48.14
2022-08-25T12:19:24.096Z,48.10
2022-08-25T12:21:50.895Z,47.93
2022-08-25T12:24:36.102Z,47.64
2022-08-25T12:30:27.995Z,47.67
2022-08-25T12:33:13.053Z,47.58
2022-08-25T12:35:55.128Z,47.13
2022-08-25T12:38:42.466Z,47.58
2022-08-25T12:41:12.614Z,47.30
2022-08-25T12:43:44.099Z,47.32
2022-08-25T12:46:19.822Z,47.07
2022-08-25T12:49:25.296Z,47.08
2022-08-25T12:52:05.000Z,47.37
2022-08-25T12:54:52.346Z,47.35
2022-08-25T12:58:04.279Z,47.60
2022-08-25T13:00:37.968Z,47.54
2022-08-25T13:03:25.913Z,47.35
2022-08-25T13:06:14.129Z,47.28
2022-08-25T13:08:49.973Z,47.44
2022-08-25T13:11:38.765Z,47.45
2022-08-25T13:14:26.797Z,48.05
2022-08-25T13:16:55.363Z,49.00
2022-08-25T13:19:22.532Z,49.31
2022-08-25T13:21:49.145Z,49.39
2022-08-25T13:24:26.839Z,49.46
2022-08-25T13:27:05.002Z,49.49
2022-08-25T13:29:36.844Z,49.50
2022-08-25T13:32:09.959Z,49.52
2022-08-25T13:34:42.559Z,49.49
2022-08-25T13:37:29.811Z,49.49
2022-08-25T13:40:14.423Z,49.50
2022-08-25T13:42:54.430Z,49.48
2022-08-25T13:45:24.541Z,49.52
2022-08-25T13:47:55.846Z,49.53
2022-08-25T13:50:33.789Z,49.57
2022-08-25T13:53:02.010Z,49.59
2022-08-25T13:55:38.203Z,49.60
2022-08-25T13:58:24.943Z,49.62
2022-08-25T14:01:23.285Z,49.63
2022-08-25T14:04:21.276Z,49.64
2022-08-25T14:06:48.032Z,49.68
2022-08-25T14:09:17.290Z,49.69
2022-08-25T14:11:49.890Z,49.69
2022-08-25T14:14:23.353Z,49.70
2022-08-25T14:17:16.403Z,49.70
2022-08-25T14:19:48.904Z,49.71
2022-08-25T14:22:15.899Z,49.73
2022-08-25T14:24:42.531Z,49.76
2022-08-25T14:27:09.122Z,49.78
2022-08-25T14:29:41.417Z,49.81
2022-08-25T14:32:08.110Z,49.82
2022-08-25T14:34:36.868Z,49.83
2022-08-25T14:37:10.099Z,49.84
2022-08-25T14:39:37.506Z,49.84
2022-08-25T14:42:05.391Z,49.87
2022-08-25T14:44:32.832Z,49.88
2022-08-25T14:47:00.056Z,49.91
2022-08-25T14:49:29.854Z,49.92
2022-08-25T14:51:57.488Z,49.93
2022-08-25T14:54:26.150Z,49.94
2022-08-25T14:56:53.422Z,49.96
2022-08-25T14:59:20.023Z,49.97
2022-08-25T15:01:47.115Z,49.98
2022-08-25T15:04:22.294Z,49.98
2022-08-25T15:06:51.335Z,50.00
2022-08-25T15:09:18.561Z,50.03
2022-08-25T15:11:56.091Z,50.04
2022-08-25T15:14:28.828Z,50.05
2022-08-25T15:16:59.777Z,50.06
2022-08-25T15:19:27.492Z,50.08
2022-08-25T15:21:54.310Z,50.09
2022-08-25T15:24:25.639Z,50.10
2022-08-25T15:29:29.153Z,50.12
2022-08-25T15:31:56.280Z,50.13
2022-08-25T15:34:22.906Z,50.14
2022-08-25T15:36:49.479Z,50.15
2022-08-25T15:39:17.495Z,50.18
2022-08-25T15:41:48.246Z,50.19
2022-08-25T15:44:16.261Z,50.20
2022-08-25T15:46:46.999Z,50.20
2022-08-25T15:49:20.884Z,50.22
2022-08-25T15:51:51.184Z,50.24
2022-08-25T15:54:17.763Z,50.24
2022-08-25T15:56:44.612Z,50.26
2022-08-25T15:59:13.503Z,50.25
2022-08-25T16:01:40.558Z,50.26
2022-08-25T16:04:07.298Z,50.27
2022-08-25T16:06:34.124Z,50.30
2022-08-25T16:09:01.150Z,50.31
2022-08-25T16:11:29.456Z,50.32
2022-08-25T16:13:56.981Z,50.32
2022-08-25T16:16:25.208Z,50.33
2022-08-25T16:18:52.080Z,50.35
2022-08-25T16:21:21.645Z,50.35
2022-08-25T16:24:00.327Z,50.36
2022-08-25T16:26:29.515Z,50.38
2022-08-25T16:28:56.098Z,50.40
2022-08-25T16:31:23.932Z,50.41
2022-08-25T16:33:53.496Z,50.41
2022-08-25T16:36:24.352Z,50.41
2022-08-25T16:38:53.995Z,50.42
2022-08-25T16:41:24.226Z,50.42
2022-08-25T16:43:51.161Z,50.42
2022-08-25T16:46:20.331Z,50.43
2022-08-25T16:48:47.231Z,50.43
2022-08-25T16:51:15.650Z,50.43
2022-08-25T16:54:04.676Z,50.46
2022-08-25T16:56:33.096Z,50.45
2022-08-25T16:59:00.591Z,50.46
2022-08-25T17:01:27.746Z,50.47
2022-08-25T17:03:55.849Z,50.47
2022-08-25T17:06:22.908Z,50.49
2022-08-25T17:08:50.940Z,50.50
2022-08-25T17:11:23.052Z,50.52
2022-08-25T17:13:52.024Z,50.51
2022-08-25T17:16:19.356Z,50.52
2022-08-25T17:18:47.911Z,50.52
2022-08-25T17:21:24.458Z,50.53
2022-08-25T17:23:52.978Z,50.53
2022-08-25T17:26:19.868Z,50.53
2022-08-25T17:28:54.751Z,50.53
2022-08-25T17:31:25.117Z,50.54
2022-08-25T17:33:52.346Z,50.57
2022-08-25T17:36:18.955Z,50.58
2022-08-25T17:38:45.589Z,50.59
2022-08-25T17:41:12.174Z,50.60
2022-08-25T17:43:39.605Z,50.60
2022-08-25T17:46:06.791Z,50.62
2022-08-25T17:48:33.614Z,50.61
2022-08-25T17:51:00.568Z,50.63
2022-08-25T17:53:27.323Z,50.63
2022-08-25T17:56:02.369Z,50.66
2022-08-25T17:58:29.373Z,50.66
2022-08-25T18:00:56.660Z,50.68
2022-08-25T18:03:23.235Z,50.69
2022-08-25T18:05:50.331Z,50.70
2022-08-25T18:08:18.153Z,50.72
2022-08-25T18:10:46.498Z,50.72
2022-08-25T18:13:13.359Z,50.73
2022-08-25T18:15:42.340Z,50.74
2022-08-25T18:18:09.762Z,50.76
2022-08-25T18:20:39.201Z,50.77
2022-08-25T18:23:09.414Z,50.80
2022-08-25T18:25:36.410Z,50.80
2022-08-25T18:28:08.629Z,50.81
2022-08-25T18:30:36.068Z,50.82
2022-08-25T18:33:02.687Z,50.86
2022-08-25T18:35:29.383Z,50.88
2022-08-25T18:38:14.672Z,50.89
2022-08-25T18:40:41.379Z,50.90
2022-08-25T18:43:10.729Z,50.92
2022-08-25T18:45:41.487Z,50.94
2022-08-25T18:48:10.687Z,50.93
2022-08-25T18:50:42.580Z,50.96
2022-08-25T18:53:10.091Z,50.98
2022-08-25T18:55:37.246Z,50.99
2022-08-25T18:58:04.442Z,51.01
2022-08-25T19:00:31.269Z,51.02
2022-08-25T19:03:00.336Z,51.04
2022-08-25T19:05:31.703Z,51.02
2022-08-25T19:08:04.630Z,51.02
2022-08-25T19:10:32.387Z,51.05
2022-08-25T19:13:07.945Z,51.09
2022-08-25T19:15:35.056Z,51.09
2022-08-25T19:18:02.139Z,51.13
2022-08-25T19:20:30.558Z,51.12
2022-08-25T19:22:57.852Z,51.15
2022-08-25T19:25:25.145Z,51.14
2022-08-25T19:28:00.416Z,51.18
2022-08-25T19:30:28.451Z,51.20
2022-08-25T19:32:56.215Z,51.21
2022-08-25T19:35:37.454Z,51.21
2022-08-25T19:38:07.171Z,51.24
2022-08-25T19:40:54.383Z,51.25
2022-08-25T19:43:21.212Z,51.28
2022-08-25T19:45:50.313Z,51.31
2022-08-25T19:48:18.322Z,51.33
2022-08-25T19:50:45.268Z,51.33
2022-08-25T19:53:11.867Z,51.35
2022-08-25T19:55:39.696Z,51.39
2022-08-25T19:58:07.907Z,51.40
2022-08-25T20:00:35.442Z,51.43
2022-08-25T20:03:04.094Z,51.45
2022-08-25T20:05:30.971Z,51.45
2022-08-25T20:07:57.715Z,51.47
2022-08-25T20:10:26.514Z,51.50
2022-08-25T20:12:55.193Z,51.52
2022-08-25T20:15:21.891Z,51.53
2022-08-25T20:17:50.160Z,51.56
2022-08-25T20:20:23.411Z,51.57
2022-08-25T20:22:50.000Z,51.60
2022-08-25T20:25:23.295Z,51.63
2022-08-25T20:27:53.636Z,51.65
2022-08-25T20:30:28.441Z,51.67
2022-08-25T20:32:55.924Z,51.70
2022-08-25T20:35:26.495Z,51.73
2022-08-25T20:37:53.550Z,51.79
2022-08-25T20:40:25.721Z,51.83
2022-08-25T20:42:52.912Z,51.86
2022-08-25T20:45:21.810Z,51.91
2022-08-25T20:47:49.398Z,51.94
2022-08-25T20:50:16.203Z,51.99
2022-08-25T20:52:43.266Z,52.01
2022-08-25T20:55:10.603Z,52.02
2022-08-25T20:57:38.923Z,52.06
2022-08-25T21:00:06.484Z,52.08
2022-08-25T21:02:33.862Z,52.11
2022-08-25T21:05:01.069Z,52.11
2022-08-25T21:07:28.283Z,52.12
2022-08-25T21:09:54.886Z,52.13
2022-08-25T21:12:21.592Z,52.15
2022-08-25T21:14:48.508Z,52.16
2022-08-25T21:17:15.323Z,52.17
2022-08-25T21:19:45.982Z,52.17
2022-08-25T21:22:12.675Z,52.19
2022-08-25T21:24:39.363Z,52.20
2022-08-25T21:27:06.218Z,52.20
2022-08-25T21:29:32.921Z,52.22
2022-08-25T21:31:59.774Z,52.20
2022-08-25T21:34:28.842Z,52.22
2022-08-25T21:37:00.111Z,52.22
2022-08-25T21:39:28.070Z,52.23
2022-08-25T21:41:55.454Z,52.23
2022-08-25T21:44:22.103Z,52.24
2022-08-25T21:46:54.427Z,52.23
2022-08-25T21:49:21.481Z,52.22
2022-08-25T21:51:50.957Z,52.23
2022-08-25T21:54:24.056Z,52.23
2022-08-25T21:56:52.454Z,52.27
2022-08-25T21:59:22.254Z,52.26
2022-08-25T22:01:48.937Z,52.27
2022-08-25T22:04:17.570Z,52.26
2022-08-25T22:06:45.343Z,52.29
2022-08-25T22:09:13.346Z,52.28
2022-08-25T22:11:41.270Z,52.29
2022-08-25T22:14:08.027Z,52.29
2022-08-25T22:16:34.959Z,52.30
2022-08-25T22:19:02.362Z,52.30
2022-08-25T22:21:28.988Z,52.31
2022-08-25T22:23:58.499Z,52.33
2022-08-25T22:26:27.434Z,52.34
2022-08-25T22:28:54.505Z,52.36
2022-08-25T22:31:21.292Z,52.37
2022-08-25T22:33:48.375Z,52.37
2022-08-25T22:36:22.008Z,52.39
2022-08-25T22:38:48.692Z,52.40
2022-08-25T22:41:19.058Z,52.41
2022-08-25T22:43:49.052Z,52.43
2022-08-25T22:46:15.772Z,52.45
2022-08-25T22:48:44.012Z,52.45
2022-08-25T22:51:17.753Z,52.46
2022-08-25T22:53:45.136Z,52.47
2022-08-25T22:56:12.508Z,52.48
2022-08-25T22:58:39.291Z,52.48
2022-08-25T23:01:13.363Z,52.49
2022-08-25T23:03:44.422Z,52.49
2022-08-25T23:06:24.490Z,52.49
2022-08-25T23:08:52.352Z,52.52
2022-08-25T23:11:20.897Z,52.53
2022-08-25T23:13:47.471Z,52.53
2022-08-25T23:16:14.324Z,52.54
2022-08-25T23:18:43.806Z,52.55
2022-08-25T23:21:29.258Z,52.55
2022-08-25T23:24:01.952Z,52.56
2022-08-25T23:26:29.063Z,52.57
2022-08-25T23:28:55.693Z,52.58
2022-08-25T23:31:22.282Z,52.58
2022-08-25T23:33:50.883Z,52.58
2022-08-25T23:36:17.571Z,52.60
2022-08-25T23:38:45.673Z,52.60
2022-08-25T23:41:20.160Z,52.61
2022-08-25T23:43:47.903Z,52.60
2022-08-25T23:46:16.892Z,52.62
2022-08-25T23:48:43.573Z,52.62
2022-08-25T23:51:10.259Z,52.61
2022-08-25T23:53:36.881Z,52.64
2022-08-25T23:56:05.574Z,52.65
2022-08-25T23:58:32.403Z,52.65
